Hlavní strana
METAR-TAF:

METAR-TAF

Letiště :

Jönköping, Švédsko

zeměpisná šířka: 57-46N, zeměpisná délka: 014-05E, výška: 226 m

Aktuální stav počasí

Zpráva byla vytvořena před 25 minutami, v 00:50 UTC
Jihozápadní vítr 2 kt
Teplota 8°C
Vlhkost vzduchu 93%
Tlak 1020 hPa
Viditelnost 10 km a více

METAR: ESGJ 220050Z AUTO 22002KT 9999 NCD 08/07 Q1020

Čas: 03:15 (01:15 UTC)

Předpověď počasí

Zpráva byla vytvořena před 4 hodinami a 45 minutami, v 20:30 UTC
Předpověď platná od 21 v 21 UTC do 22 v 01 UTC
Západní vítr 4 kt
Viditelnost 10 km a více
Žádná oblačnost pod 1500 m, nevyskytují se cumulonimby.

TAF: ESGJ 212030Z 2121/2201 26004KT CAVOK

Stav a předpovědi počasí z více než 4 000 letišť (zprávy METAR a TAF).

Červené a žluté tečky na mapě představují dostupné meteorologické stanice.

Když kurzor umístíte na tečku, zobrazí se název stanice.

Pak kliknutím zobrazíte stav a předpověď počasí.

Chcete-li změnit mapu, kliknutím na zelené tlačítko se znaménkem +mapu přiblížíte, kliknutím na zelené tlačítko se znaménkem – mapu oddálíte a kliknutím na zelené šipky přejdete na sousední mapy.


METAR-TAF: